sensor_id;sensor_type;location;lat;lon;timestamp;pressure;altitude;pressure_sealevel;temperature;humidity
49342;BME280;35210;41.606;-87.602;2023-01-29T00:00:18;99821.81;;;0.79;77.13
49342;BME280;35210;41.606;-87.602;2023-01-29T00:02:47;99814.00;;;0.79;78.09
49342;BME280;35210;41.606;-87.602;2023-01-29T00:05:15;99818.22;;;0.83;77.77
49342;BME280;35210;41.606;-87.602;2023-01-29T00:07:43;99814.38;;;0.69;78.16
49342;BME280;35210;41.606;-87.602;2023-01-29T00:10:11;99812.25;;;0.80;78.06
49342;BME280;35210;41.606;-87.602;2023-01-29T00:12:40;99816.47;;;0.84;78.26
49342;BME280;35210;41.606;-87.602;2023-01-29T00:15:09;99822.31;;;0.90;78.32
49342;BME280;35210;41.606;-87.602;2023-01-29T00:17:37;99823.88;;;0.96;78.04
49342;BME280;35210;41.606;-87.602;2023-01-29T00:20:06;99834.00;;;1.05;77.90
49342;BME280;35210;41.606;-87.602;2023-01-29T00:22:34;99823.53;;;1.07;76.84
49342;BME280;35210;41.606;-87.602;2023-01-29T00:25:02;99821.78;;;1.07;76.83
49342;BME280;35210;41.606;-87.602;2023-01-29T00:27:30;99808.44;;;1.18;77.81
49342;BME280;35210;41.606;-87.602;2023-01-29T00:30:00;99821.44;;;1.18;75.90
49342;BME280;35210;41.606;-87.602;2023-01-29T00:32:44;99816.25;;;1.18;75.80
49342;BME280;35210;41.606;-87.602;2023-01-29T00:35:12;99815.63;;;1.10;75.33
49342;BME280;35210;41.606;-87.602;2023-01-29T00:37:41;99816.38;;;1.13;75.10
49342;BME280;35210;41.606;-87.602;2023-01-29T00:40:10;99812.13;;;1.11;75.05
49342;BME280;35210;41.606;-87.602;2023-01-29T00:42:38;99826.00;;;1.11;75.47
49342;BME280;35210;41.606;-87.602;2023-01-29T00:45:25;99833.75;;;1.13;75.19
49342;BME280;35210;41.606;-87.602;2023-01-29T00:47:53;99838.91;;;1.14;75.16
49342;BME280;35210;41.606;-87.602;2023-01-29T00:50:22;99843.44;;;1.08;76.03
49342;BME280;35210;41.606;-87.602;2023-01-29T00:52:50;99845.06;;;1.12;76.17
49342;BME280;35210;41.606;-87.602;2023-01-29T00:55:19;99837.06;;;1.18;76.23
49342;BME280;35210;41.606;-87.602;2023-01-29T00:57:48;99850.19;;;1.13;75.93
49342;BME280;35210;41.606;-87.602;2023-01-29T01:00:17;99844.91;;;1.16;76.95
49342;BME280;35210;41.606;-87.602;2023-01-29T01:02:47;99840.59;;;1.15;77.78
49342;BME280;35210;41.606;-87.602;2023-01-29T01:05:32;99842.09;;;1.22;77.73
49342;BME280;35210;41.606;-87.602;2023-01-29T01:08:00;99840.69;;;1.12;78.93
49342;BME280;35210;41.606;-87.602;2023-01-29T01:10:29;99827.53;;;1.17;78.86
49342;BME280;35210;41.606;-87.602;2023-01-29T01:12:58;99832.59;;;1.21;80.36
49342;BME280;35210;41.606;-87.602;2023-01-29T01:15:29;99815.94;;;1.27;80.00
49342;BME280;35210;41.606;-87.602;2023-01-29T01:18:00;99810.38;;;1.38;80.58
49342;BME280;35210;41.606;-87.602;2023-01-29T01:20:30;99816.28;;;1.43;80.40
49342;BME280;35210;41.606;-87.602;2023-01-29T01:22:59;99805.72;;;1.47;79.52
49342;BME280;35210;41.606;-87.602;2023-01-29T01:25:27;99805.38;;;1.56;78.95
49342;BME280;35210;41.606;-87.602;2023-01-29T01:27:56;99802.72;;;1.58;78.93
49342;BME280;35210;41.606;-87.602;2023-01-29T01:30:26;99795.16;;;1.50;78.74
49342;BME280;35210;41.606;-87.602;2023-01-29T01:32:54;99786.88;;;1.41;77.85
49342;BME280;35210;41.606;-87.602;2023-01-29T01:35:24;99799.81;;;1.42;78.29
49342;BME280;35210;41.606;-87.602;2023-01-29T01:37:52;99797.13;;;1.45;78.91
49342;BME280;35210;41.606;-87.602;2023-01-29T01:40:21;99799.78;;;1.44;78.94
49342;BME280;35210;41.606;-87.602;2023-01-29T01:42:50;99793.72;;;1.43;78.88
49342;BME280;35210;41.606;-87.602;2023-01-29T01:45:22;99783.63;;;1.34;79.02
49342;BME280;35210;41.606;-87.602;2023-01-29T01:47:55;99776.44;;;1.41;79.04
49342;BME280;35210;41.606;-87.602;2023-01-29T01:50:30;99766.78;;;1.44;79.23
49342;BME280;35210;41.606;-87.602;2023-01-29T01:53:04;99766.84;;;1.43;79.00
49342;BME280;35210;41.606;-87.602;2023-01-29T01:55:38;99753.72;;;1.46;78.39
49342;BME280;35210;41.606;-87.602;2023-01-29T01:58:12;99742.78;;;1.36;78.20
49342;BME280;35210;41.606;-87.602;2023-01-29T02:00:41;99727.22;;;1.35;77.72
49342;BME280;35210;41.606;-87.602;2023-01-29T02:03:11;99735.03;;;1.35;77.65
49342;BME280;35210;41.606;-87.602;2023-01-29T02:05:59;99723.50;;;1.42;78.41
49342;BME280;35210;41.606;-87.602;2023-01-29T02:08:50;99725.25;;;1.41;78.70
49342;BME280;35210;41.606;-87.602;2023-01-29T02:11:37;99714.69;;;1.46;77.79
49342;BME280;35210;41.606;-87.602;2023-01-29T02:14:06;99711.19;;;1.47;77.98
49342;BME280;35210;41.606;-87.602;2023-01-29T02:16:35;99706.31;;;1.38;77.67
49342;BME280;35210;41.606;-87.602;2023-01-29T02:19:13;99707.78;;;1.45;78.17
49342;BME280;35210;41.606;-87.602;2023-01-29T02:22:11;99712.25;;;1.41;77.91
49342;BME280;35210;41.606;-87.602;2023-01-29T02:25:05;99704.28;;;1.46;78.37
49342;BME280;35210;41.606;-87.602;2023-01-29T02:28:09;99721.91;;;1.38;78.21
49342;BME280;35210;41.606;-87.602;2023-01-29T02:30:44;99709.91;;;1.34;78.76
49342;BME280;35210;41.606;-87.602;2023-01-29T02:33:24;99715.13;;;1.34;78.78
49342;BME280;35210;41.606;-87.602;2023-01-29T02:36:02;99696.91;;;1.34;78.65
49342;BME280;35210;41.606;-87.602;2023-01-29T02:38:40;99685.81;;;1.28;78.77
49342;BME280;35210;41.606;-87.602;2023-01-29T02:41:15;99679.88;;;1.25;79.07
49342;BME280;35210;41.606;-87.602;2023-01-29T02:43:53;99676.41;;;1.24;79.34
49342;BME280;35210;41.606;-87.602;2023-01-29T02:46:29;99672.69;;;1.31;79.34
49342;BME280;35210;41.606;-87.602;2023-01-29T02:49:07;99665.41;;;1.41;78.91
49342;BME280;35210;41.606;-87.602;2023-01-29T02:51:42;99653.25;;;1.42;77.48
49342;BME280;35210;41.606;-87.602;2023-01-29T02:54:18;99663.94;;;1.34;77.58
49342;BME280;35210;41.606;-87.602;2023-01-29T02:56:52;99661.13;;;1.40;78.67
49342;BME280;35210;41.606;-87.602;2023-01-29T02:59:28;99665.06;;;1.50;78.43
49342;BME280;35210;41.606;-87.602;2023-01-29T03:02:02;99648.47;;;1.53;78.89
49342;BME280;35210;41.606;-87.602;2023-01-29T03:04:38;99650.97;;;1.56;78.28
49342;BME280;35210;41.606;-87.602;2023-01-29T03:07:14;99655.84;;;1.42;78.19
49342;BME280;35210;41.606;-87.602;2023-01-29T03:10:10;99651.44;;;1.44;78.59
49342;BME280;35210;41.606;-87.602;2023-01-29T03:12:42;99660.84;;;1.48;79.16
49342;BME280;35210;41.606;-87.602;2023-01-29T03:15:17;99659.09;;;1.48;78.87
49342;BME280;35210;41.606;-87.602;2023-01-29T03:17:54;99658.34;;;1.45;79.30
49342;BME280;35210;41.606;-87.602;2023-01-29T03:20:29;99652.25;;;1.46;79.78
49342;BME280;35210;41.606;-87.602;2023-01-29T03:23:03;99651.28;;;1.48;79.60
49342;BME280;35210;41.606;-87.602;2023-01-29T03:25:34;99656.53;;;1.47;80.03
49342;BME280;35210;41.606;-87.602;2023-01-29T03:28:21;99663.25;;;1.52;79.76
49342;BME280;35210;41.606;-87.602;2023-01-29T03:31:11;99654.66;;;1.50;78.75
49342;BME280;35210;41.606;-87.602;2023-01-29T03:34:00;99659.00;;;1.50;79.32
49342;BME280;35210;41.606;-87.602;2023-01-29T03:36:36;99660.84;;;1.48;79.62
49342;BME280;35210;41.606;-87.602;2023-01-29T03:39:11;99651.50;;;1.42;79.81
49342;BME280;35210;41.606;-87.602;2023-01-29T03:41:44;99653.81;;;1.26;80.52
49342;BME280;35210;41.606;-87.602;2023-01-29T03:44:19;99653.53;;;1.34;81.29
49342;BME280;35210;41.606;-87.602;2023-01-29T03:46:56;99648.50;;;1.29;81.51
49342;BME280;35210;41.606;-87.602;2023-01-29T03:49:31;99641.44;;;1.33;81.81
49342;BME280;35210;41.606;-87.602;2023-01-29T03:52:06;99642.06;;;1.40;82.84
49342;BME280;35210;41.606;-87.602;2023-01-29T03:54:43;99652.34;;;1.43;83.52
49342;BME280;35210;41.606;-87.602;2023-01-29T03:57:25;99644.66;;;1.40;85.24
49342;BME280;35210;41.606;-87.602;2023-01-29T04:00:03;99639.09;;;1.49;86.00
49342;BME280;35210;41.606;-87.602;2023-01-29T04:02:41;99644.06;;;1.55;86.77
49342;BME280;35210;41.606;-87.602;2023-01-29T04:05:14;99632.63;;;1.59;87.50
49342;BME280;35210;41.606;-87.602;2023-01-29T04:07:44;99627.25;;;1.63;87.75
49342;BME280;35210;41.606;-87.602;2023-01-29T04:10:16;99624.38;;;1.71;88.27
49342;BME280;35210;41.606;-87.602;2023-01-29T04:12:50;99619.91;;;1.75;87.66
49342;BME280;35210;41.606;-87.602;2023-01-29T04:15:21;99608.06;;;1.66;87.97
49342;BME280;35210;41.606;-87.602;2023-01-29T04:17:55;99611.88;;;1.57;88.20
49342;BME280;35210;41.606;-87.602;2023-01-29T04:20:24;99615.66;;;1.49;88.22
49342;BME280;35210;41.606;-87.602;2023-01-29T04:22:52;99610.59;;;1.46;89.40
49342;BME280;35210;41.606;-87.602;2023-01-29T04:25:22;99614.78;;;1.26;90.67
49342;BME280;35210;41.606;-87.602;2023-01-29T04:28:00;99605.13;;;1.30;91.63
49342;BME280;35210;41.606;-87.602;2023-01-29T04:30:41;99624.97;;;1.33;91.91
49342;BME280;35210;41.606;-87.602;2023-01-29T04:33:28;99604.63;;;1.44;91.44
49342;BME280;35210;41.606;-87.602;2023-01-29T04:36:23;99591.94;;;1.35;91.42
49342;BME280;35210;41.606;-87.602;2023-01-29T04:39:02;99602.91;;;1.43;91.89
49342;BME280;35210;41.606;-87.602;2023-01-29T04:41:36;99588.88;;;1.47;91.38
49342;BME280;35210;41.606;-87.602;2023-01-29T04:44:14;99605.41;;;1.46;91.80
49342;BME280;35210;41.606;-87.602;2023-01-29T04:46:47;99589.41;;;1.55;92.21
49342;BME280;35210;41.606;-87.602;2023-01-29T04:49:26;99593.53;;;1.60;91.83
49342;BME280;35210;41.606;-87.602;2023-01-29T04:52:00;99590.88;;;1.62;91.39
49342;BME280;35210;41.606;-87.602;2023-01-29T04:54:39;99586.59;;;1.61;91.05
49342;BME280;35210;41.606;-87.602;2023-01-29T04:57:18;99593.66;;;1.57;91.43
49342;BME280;35210;41.606;-87.602;2023-01-29T04:59:54;99602.31;;;1.58;91.97
49342;BME280;35210;41.606;-87.602;2023-01-29T05:02:26;99602.13;;;1.62;91.67
49342;BME280;35210;41.606;-87.602;2023-01-29T05:04:57;99601.22;;;1.63;91.84
49342;BME280;35210;41.606;-87.602;2023-01-29T05:07:28;99597.66;;;1.66;91.71
49342;BME280;35210;41.606;-87.602;2023-01-29T05:09:59;99615.94;;;1.64;91.49
49342;BME280;35210;41.606;-87.602;2023-01-29T05:12:30;99621.78;;;1.71;91.57
49342;BME280;35210;41.606;-87.602;2023-01-29T05:15:01;99620.69;;;1.77;91.03
49342;BME280;35210;41.606;-87.602;2023-01-29T05:17:31;99624.94;;;1.79;90.57
49342;BME280;35210;41.606;-87.602;2023-01-29T05:20:01;99617.19;;;1.78;90.18
49342;BME280;35210;41.606;-87.602;2023-01-29T05:22:30;99614.41;;;1.82;90.57
49342;BME280;35210;41.606;-87.602;2023-01-29T05:24:58;99611.78;;;1.82;90.92
49342;BME280;35210;41.606;-87.602;2023-01-29T05:27:33;99603.75;;;1.88;91.02
49342;BME280;35210;41.606;-87.602;2023-01-29T05:30:19;99595.88;;;1.90;90.82
49342;BME280;35210;41.606;-87.602;2023-01-29T05:32:47;99604.66;;;1.87;90.81
49342;BME280;35210;41.606;-87.602;2023-01-29T05:35:17;99595.16;;;1.86;90.96
49342;BME280;35210;41.606;-87.602;2023-01-29T05:37:45;99602.16;;;1.84;91.17
49342;BME280;35210;41.606;-87.602;2023-01-29T05:40:13;99597.75;;;1.86;91.25
49342;BME280;35210;41.606;-87.602;2023-01-29T05:42:41;99590.78;;;1.87;91.40
49342;BME280;35210;41.606;-87.602;2023-01-29T05:45:10;99588.38;;;1.82;91.63
49342;BME280;35210;41.606;-87.602;2023-01-29T05:47:38;99581.47;;;1.81;92.70
49342;BME280;35210;41.606;-87.602;2023-01-29T05:50:07;99579.75;;;1.80;93.24
49342;BME280;35210;41.606;-87.602;2023-01-29T05:52:37;99571.88;;;1.82;93.50
49342;BME280;35210;41.606;-87.602;2023-01-29T05:55:06;99582.19;;;1.85;93.05
49342;BME280;35210;41.606;-87.602;2023-01-29T05:57:34;99581.69;;;1.75;93.04
49342;BME280;35210;41.606;-87.602;2023-01-29T06:00:04;99575.63;;;1.75;93.11
49342;BME280;35210;41.606;-87.602;2023-01-29T06:02:32;99583.50;;;1.73;93.86
49342;BME280;35210;41.606;-87.602;2023-01-29T06:05:00;99583.50;;;1.73;93.23
49342;BME280;35210;41.606;-87.602;2023-01-29T06:07:28;99588.94;;;1.67;93.11
49342;BME280;35210;41.606;-87.602;2023-01-29T06:09:58;99584.59;;;1.68;94.13
49342;BME280;35210;41.606;-87.602;2023-01-29T06:12:26;99583.56;;;1.72;94.69
49342;BME280;35210;41.606;-87.602;2023-01-29T06:14:54;99574.84;;;1.73;94.88
49342;BME280;35210;41.606;-87.602;2023-01-29T06:17:22;99577.41;;;1.74;94.52
49342;BME280;35210;41.606;-87.602;2023-01-29T06:19:51;99579.28;;;1.71;94.68
49342;BME280;35210;41.606;-87.602;2023-01-29T06:22:19;99572.38;;;1.70;94.81
49342;BME280;35210;41.606;-87.602;2023-01-29T06:24:47;99573.94;;;1.74;95.48
49342;BME280;35210;41.606;-87.602;2023-01-29T06:27:17;99572.91;;;1.78;95.01
49342;BME280;35210;41.606;-87.602;2023-01-29T06:29:45;99572.00;;;1.79;94.18
49342;BME280;35210;41.606;-87.602;2023-01-29T06:32:13;99573.75;;;1.78;94.39
49342;BME280;35210;41.606;-87.602;2023-01-29T06:34:41;99556.50;;;1.76;94.84
49342;BME280;35210;41.606;-87.602;2023-01-29T06:37:09;99564.38;;;1.74;95.41
49342;BME280;35210;41.606;-87.602;2023-01-29T06:39:37;99571.28;;;1.75;95.63
49342;BME280;35210;41.606;-87.602;2023-01-29T06:42:07;99575.53;;;1.78;95.35
49342;BME280;35210;41.606;-87.602;2023-01-29T06:44:38;99575.41;;;1.81;96.14
49342;BME280;35210;41.606;-87.602;2023-01-29T06:47:06;99574.31;;;1.86;96.02
49342;BME280;35210;41.606;-87.602;2023-01-29T06:49:34;99582.69;;;1.94;96.25
49342;BME280;35210;41.606;-87.602;2023-01-29T06:52:03;99577.34;;;1.97;96.48
49342;BME280;35210;41.606;-87.602;2023-01-29T06:54:31;99581.47;;;2.03;95.82
49342;BME280;35210;41.606;-87.602;2023-01-29T06:56:59;99571.72;;;2.08;96.19
49342;BME280;35210;41.606;-87.602;2023-01-29T06:59:28;99571.78;;;2.07;95.41
49342;BME280;35210;41.606;-87.602;2023-01-29T07:01:58;99577.78;;;2.09;96.31
49342;BME280;35210;41.606;-87.602;2023-01-29T07:04:28;99569.72;;;2.15;95.55
49342;BME280;35210;41.606;-87.602;2023-01-29T07:06:56;99555.84;;;2.14;95.55
49342;BME280;35210;41.606;-87.602;2023-01-29T07:09:25;99558.31;;;2.17;95.80
49342;BME280;35210;41.606;-87.602;2023-01-29T07:11:54;99559.28;;;2.15;95.01
49342;BME280;35210;41.606;-87.602;2023-01-29T07:14:22;99562.81;;;2.14;96.51
49342;BME280;35210;41.606;-87.602;2023-01-29T07:16:50;99566.31;;;2.13;96.48
49342;BME280;35210;41.606;-87.602;2023-01-29T07:19:20;99570.56;;;2.15;96.29
49342;BME280;35210;41.606;-87.602;2023-01-29T07:21:49;99564.25;;;2.21;96.27
49342;BME280;35210;41.606;-87.602;2023-01-29T07:24:17;99572.63;;;2.27;95.99
49342;BME280;35210;41.606;-87.602;2023-01-29T07:26:45;99566.44;;;2.30;95.81
49342;BME280;35210;41.606;-87.602;2023-01-29T07:29:13;99569.72;;;2.35;95.21
49342;BME280;35210;41.606;-87.602;2023-01-29T07:31:41;99580.00;;;2.38;95.62
49342;BME280;35210;41.606;-87.602;2023-01-29T07:34:11;99580.59;;;2.45;94.04
49342;BME280;35210;41.606;-87.602;2023-01-29T07:36:41;99583.03;;;2.49;94.59
49342;BME280;35210;41.606;-87.602;2023-01-29T07:39:10;99579.56;;;2.49;94.56
49342;BME280;35210;41.606;-87.602;2023-01-29T07:41:38;99590.72;;;2.52;94.25
49342;BME280;35210;41.606;-87.602;2023-01-29T07:44:07;99600.16;;;2.55;93.96
49342;BME280;35210;41.606;-87.602;2023-01-29T07:46:35;99592.41;;;2.53;93.79
49342;BME280;35210;41.606;-87.602;2023-01-29T07:49:03;99602.59;;;2.59;94.00
49342;BME280;35210;41.606;-87.602;2023-01-29T07:51:32;99610.47;;;2.58;94.15
49342;BME280;35210;41.606;-87.602;2023-01-29T07:54:02;99614.97;;;2.54;94.45
49342;BME280;35210;41.606;-87.602;2023-01-29T07:56:30;99620.75;;;2.61;94.01
49342;BME280;35210;41.606;-87.602;2023-01-29T07:58:59;99598.09;;;2.63;93.78
49342;BME280;35210;41.606;-87.602;2023-01-29T08:01:27;99606.09;;;2.58;93.59
49342;BME280;35210;41.606;-87.602;2023-01-29T08:03:55;99614.69;;;2.60;94.64
49342;BME280;35210;41.606;-87.602;2023-01-29T08:06:23;99607.59;;;2.64;92.53
49342;BME280;35210;41.606;-87.602;2023-01-29T08:08:51;99615.50;;;2.62;92.37
49342;BME280;35210;41.606;-87.602;2023-01-29T08:11:22;99610.00;;;2.48;92.71
49342;BME280;35210;41.606;-87.602;2023-01-29T08:13:51;99605.50;;;2.52;93.63
49342;BME280;35210;41.606;-87.602;2023-01-29T08:16:19;99590.59;;;2.55;93.13
49342;BME280;35210;41.606;-87.602;2023-01-29T08:18:48;99599.31;;;2.54;93.25
49342;BME280;35210;41.606;-87.602;2023-01-29T08:21:16;99587.19;;;2.53;92.91
49342;BME280;35210;41.606;-87.602;2023-01-29T08:23:45;99592.78;;;2.44;94.60
49342;BME280;35210;41.606;-87.602;2023-01-29T08:26:13;99587.56;;;2.44;94.26
49342;BME280;35210;41.606;-87.602;2023-01-29T08:28:43;99586.00;;;2.40;94.53
49342;BME280;35210;41.606;-87.602;2023-01-29T08:31:15;99606.84;;;2.40;95.13
49342;BME280;35210;41.606;-87.602;2023-01-29T08:33:44;99616.50;;;2.38;95.39
49342;BME280;35210;41.606;-87.602;2023-01-29T08:36:13;99609.53;;;2.39;94.68
49342;BME280;35210;41.606;-87.602;2023-01-29T08:38:42;99609.34;;;2.43;95.49
49342;BME280;35210;41.606;-87.602;2023-01-29T08:41:10;99606.59;;;2.46;94.77
49342;BME280;35210;41.606;-87.602;2023-01-29T08:43:38;99600.47;;;2.47;95.24
49342;BME280;35210;41.606;-87.602;2023-01-29T08:46:08;99596.91;;;2.50;94.75
49342;BME280;35210;41.606;-87.602;2023-01-29T08:48:36;99602.97;;;2.50;95.15
49342;BME280;35210;41.606;-87.602;2023-01-29T08:51:04;99606.28;;;2.54;94.47
49342;BME280;35210;41.606;-87.602;2023-01-29T08:53:32;99602.84;;;2.53;94.06
49342;BME280;35210;41.606;-87.602;2023-01-29T08:56:01;99613.31;;;2.52;93.87
49342;BME280;35210;41.606;-87.602;2023-01-29T08:58:29;99608.03;;;2.53;93.48
49342;BME280;35210;41.606;-87.602;2023-01-29T09:01:05;99614.34;;;2.48;93.50
49342;BME280;35210;41.606;-87.602;2023-01-29T09:03:36;99612.78;;;2.44;94.01
49342;BME280;35210;41.606;-87.602;2023-01-29T09:06:07;99608.56;;;2.41;94.02
49342;BME280;35210;41.606;-87.602;2023-01-29T09:08:35;99607.50;;;2.45;93.71
49342;BME280;35210;41.606;-87.602;2023-01-29T09:11:03;99620.44;;;2.48;94.00
49342;BME280;35210;41.606;-87.602;2023-01-29T09:13:32;99614.22;;;2.51;93.36
49342;BME280;35210;41.606;-87.602;2023-01-29T09:16:00;99616.66;;;2.55;92.94
49342;BME280;35210;41.606;-87.602;2023-01-29T09:18:29;99621.03;;;2.55;92.34
49342;BME280;35210;41.606;-87.602;2023-01-29T09:20:59;99614.97;;;2.54;92.03
49342;BME280;35210;41.606;-87.602;2023-01-29T09:23:27;99621.94;;;2.54;92.14
49342;BME280;35210;41.606;-87.602;2023-01-29T09:25:56;99615.34;;;2.45;92.79
49342;BME280;35210;41.606;-87.602;2023-01-29T09:28:25;99618.72;;;2.47;92.60
49342;BME280;35210;41.606;-87.602;2023-01-29T09:30:54;99621.41;;;2.46;92.85
49342;BME280;35210;41.606;-87.602;2023-01-29T09:33:22;99626.53;;;2.47;92.01
49342;BME280;35210;41.606;-87.602;2023-01-29T09:35:52;99624.91;;;2.45;92.83
49342;BME280;35210;41.606;-87.602;2023-01-29T09:38:21;99615.34;;;2.45;92.09
49342;BME280;35210;41.606;-87.602;2023-01-29T09:40:57;99619.81;;;2.42;92.62
49342;BME280;35210;41.606;-87.602;2023-01-29T09:43:38;99624.84;;;2.46;92.57
49342;BME280;35210;41.606;-87.602;2023-01-29T09:46:14;99623.94;;;2.47;93.18
49342;BME280;35210;41.606;-87.602;2023-01-29T09:48:45;99626.34;;;2.52;92.51
49342;BME280;35210;41.606;-87.602;2023-01-29T09:51:24;99640.31;;;2.51;92.64
49342;BME280;35210;41.606;-87.602;2023-01-29T09:54:05;99633.53;;;2.47;93.34
49342;BME280;35210;41.606;-87.602;2023-01-29T09:56:38;99649.88;;;2.50;93.26
49342;BME280;35210;41.606;-87.602;2023-01-29T09:59:10;99648.06;;;2.52;93.62
49342;BME280;35210;41.606;-87.602;2023-01-29T10:01:49;99655.16;;;2.49;94.06
49342;BME280;35210;41.606;-87.602;2023-01-29T10:04:38;99667.59;;;2.42;94.20
49342;BME280;35210;41.606;-87.602;2023-01-29T10:07:25;99684.91;;;2.43;94.16
49342;BME280;35210;41.606;-87.602;2023-01-29T10:10:18;99678.91;;;2.41;94.09
49342;BME280;35210;41.606;-87.602;2023-01-29T10:13:00;99678.44;;;2.31;93.87
49342;BME280;35210;41.606;-87.602;2023-01-29T10:15:52;99663.09;;;2.24;95.19
49342;BME280;35210;41.606;-87.602;2023-01-29T10:18:49;99670.41;;;2.16;93.70
49342;BME280;35210;41.606;-87.602;2023-01-29T10:21:57;99662.41;;;2.20;94.19
49342;BME280;35210;41.606;-87.602;2023-01-29T10:24:35;99667.91;;;2.13;93.14
49342;BME280;35210;41.606;-87.602;2023-01-29T10:27:12;99670.47;;;2.14;93.31
49342;BME280;35210;41.606;-87.602;2023-01-29T10:29:43;99672.34;;;2.11;93.48
49342;BME280;35210;41.606;-87.602;2023-01-29T10:32:15;99677.53;;;2.11;93.28
49342;BME280;35210;41.606;-87.602;2023-01-29T10:34:48;99676.63;;;2.12;92.57
49342;BME280;35210;41.606;-87.602;2023-01-29T10:37:19;99691.47;;;2.10;93.66
49342;BME280;35210;41.606;-87.602;2023-01-29T10:39:49;99698.38;;;2.11;92.85
49342;BME280;35210;41.606;-87.602;2023-01-29T10:42:27;99684.56;;;2.09;92.40
49342;BME280;35210;41.606;-87.602;2023-01-29T10:45:09;99701.88;;;2.10;93.14
49342;BME280;35210;41.606;-87.602;2023-01-29T10:47:59;99703.59;;;2.11;92.36
49342;BME280;35210;41.606;-87.602;2023-01-29T10:50:43;99702.00;;;2.07;92.22
49342;BME280;35210;41.606;-87.602;2023-01-29T10:53:26;99713.22;;;2.09;91.81
49342;BME280;35210;41.606;-87.602;2023-01-29T10:56:06;99706.31;;;2.08;91.28
49342;BME280;35210;41.606;-87.602;2023-01-29T10:58:45;99723.63;;;2.09;90.59
49342;BME280;35210;41.606;-87.602;2023-01-29T11:01:15;99718.47;;;2.07;89.89
49342;BME280;35210;41.606;-87.602;2023-01-29T11:03:43;99730.66;;;2.07;89.34
49342;BME280;35210;41.606;-87.602;2023-01-29T11:06:17;99728.91;;;2.07;88.84
49342;BME280;35210;41.606;-87.602;2023-01-29T11:08:53;99733.16;;;2.10;89.38
49342;BME280;35210;41.606;-87.602;2023-01-29T11:11:32;99740.28;;;2.05;89.38
49342;BME280;35210;41.606;-87.602;2023-01-29T11:14:05;99740.06;;;2.11;88.95
49342;BME280;35210;41.606;-87.602;2023-01-29T11:16:41;99757.31;;;2.13;89.09
49342;BME280;35210;41.606;-87.602;2023-01-29T11:19:11;99740.78;;;2.14;88.91
49342;BME280;35210;41.606;-87.602;2023-01-29T11:21:55;99738.25;;;2.13;87.83
49342;BME280;35210;41.606;-87.602;2023-01-29T11:24:24;99728.63;;;2.15;88.07
49342;BME280;35210;41.606;-87.602;2023-01-29T11:26:55;99732.84;;;2.17;87.69
49342;BME280;35210;41.606;-87.602;2023-01-29T11:29:37;99725.69;;;2.01;88.22
49342;BME280;35210;41.606;-87.602;2023-01-29T11:32:11;99727.38;;;2.02;88.70
49342;BME280;35210;41.606;-87.602;2023-01-29T11:35:00;99743.91;;;2.01;87.57
49342;BME280;35210;41.606;-87.602;2023-01-29T11:37:35;99759.66;;;1.97;87.87
49342;BME280;35210;41.606;-87.602;2023-01-29T11:40:32;99777.88;;;1.97;88.13
49342;BME280;35210;41.606;-87.602;2023-01-29T11:43:27;99779.63;;;1.97;89.05
49342;BME280;35210;41.606;-87.602;2023-01-29T11:46:00;99796.91;;;2.00;88.11
49342;BME280;35210;41.606;-87.602;2023-01-29T11:48:39;99806.13;;;2.08;87.34
49342;BME280;35210;41.606;-87.602;2023-01-29T11:51:10;99813.31;;;2.02;87.22
49342;BME280;35210;41.606;-87.602;2023-01-29T11:53:41;99820.88;;;2.09;87.99
49342;BME280;35210;41.606;-87.602;2023-01-29T11:56:21;99807.09;;;2.06;87.46
49342;BME280;35210;41.606;-87.602;2023-01-29T11:58:51;99814.00;;;2.07;87.28
49342;BME280;35210;41.606;-87.602;2023-01-29T12:01:30;99816.63;;;2.07;87.05
49342;BME280;35210;41.606;-87.602;2023-01-29T12:04:00;99821.88;;;2.05;86.16
49342;BME280;35210;41.606;-87.602;2023-01-29T12:06:33;99842.78;;;2.04;84.85
49342;BME280;35210;41.606;-87.602;2023-01-29T12:09:09;99849.06;;;1.98;86.30
49342;BME280;35210;41.606;-87.602;2023-01-29T12:11:38;99857.59;;;2.02;86.67
49342;BME280;35210;41.606;-87.602;2023-01-29T12:14:27;99864.69;;;1.98;84.89
49342;BME280;35210;41.606;-87.602;2023-01-29T12:17:04;99868.94;;;2.01;85.45
49342;BME280;35210;41.606;-87.602;2023-01-29T12:19:36;99876.91;;;1.96;84.80
49342;BME280;35210;41.606;-87.602;2023-01-29T12:22:13;99889.19;;;1.92;85.89
49342;BME280;35210;41.606;-87.602;2023-01-29T12:24:49;99881.16;;;1.98;84.29
49342;BME280;35210;41.606;-87.602;2023-01-29T12:27:26;99877.75;;;1.96;83.48
49342;BME280;35210;41.606;-87.602;2023-01-29T12:30:03;99890.09;;;1.91;83.58
49342;BME280;35210;41.606;-87.602;2023-01-29T12:32:42;99895.59;;;1.82;84.22
49342;BME280;35210;41.606;-87.602;2023-01-29T12:35:17;99904.41;;;1.78;84.56
49342;BME280;35210;41.606;-87.602;2023-01-29T12:37:53;99905.06;;;1.85;83.35
49342;BME280;35210;41.606;-87.602;2023-01-29T12:40:28;99905.41;;;1.74;82.63
49342;BME280;35210;41.606;-87.602;2023-01-29T12:43:03;99912.75;;;1.63;83.10
49342;BME280;35210;41.606;-87.602;2023-01-29T12:45:35;99922.81;;;1.47;83.33
49342;BME280;35210;41.606;-87.602;2023-01-29T12:48:08;99922.06;;;1.44;83.61
49342;BME280;35210;41.606;-87.602;2023-01-29T12:50:39;99916.22;;;1.37;83.92
49342;BME280;35210;41.606;-87.602;2023-01-29T12:53:19;99911.94;;;1.35;84.39
49342;BME280;35210;41.606;-87.602;2023-01-29T12:55:54;99934.09;;;1.20;84.97
49342;BME280;35210;41.606;-87.602;2023-01-29T12:58:28;99944.72;;;1.12;84.98
49342;BME280;35210;41.606;-87.602;2023-01-29T13:01:03;99942.22;;;1.09;85.80
49342;BME280;35210;41.606;-87.602;2023-01-29T13:03:43;99929.16;;;1.11;84.39
49342;BME280;35210;41.606;-87.602;2023-01-29T13:06:15;99931.09;;;1.04;84.38
49342;BME280;35210;41.606;-87.602;2023-01-29T13:08:48;99935.81;;;0.91;85.34
49342;BME280;35210;41.606;-87.602;2023-01-29T13:11:21;99948.97;;;0.87;85.69
49342;BME280;35210;41.606;-87.602;2023-01-29T13:13:54;99950.84;;;0.82;85.15
49342;BME280;35210;41.606;-87.602;2023-01-29T13:16:27;99955.47;;;0.72;86.12
49342;BME280;35210;41.606;-87.602;2023-01-29T13:19:00;99964.31;;;0.67;85.46
49342;BME280;35210;41.606;-87.602;2023-01-29T13:21:35;99971.22;;;0.68;85.38